Orlik, Russia
Current Conditions -  °F | °C
As of 3:00 PM on Tuesday 21 Oct 2014 (Local Time) from UIII Reporting Station
Clear Clear  
Wind Chill:   Ceiling: Unl
Heat Index:   Visibility: 6mi
Dew Point: -5°   Wind: 18mph
Humidity: 49%   Direction: 170°S
Pressure: 29.88"   Gusts: NA
Location:  52.51°N, 99.83°E
Report Text: UIII 210700Z 17008MPS CAVOK 05/M05 Q1012 NOSIG RMK QFE716/095512CLRD60
Loading
Personal Weather Stations






























Interactive Weather Map
Tropical Storm Tracking
New forecast layout! Learn more

10-Day Weather Forecast

Advertisements
Track Severe Weather on mobile